Mary Ann Moran — WDF4572 — position and weather

sailwx.info

Track history (hours):
 
Tides and Currents Weather Stations Pressure Air Temp Water Temp Dewpoint Dewpoint Depression Visibility Wind Speed Wind Dir Waves Ship Positions

Mary Ann Moran

Owner: MORAN TOWING CORPORATION, NEW CANAAN, CT. More information available from US FCC via Universal Licensing System and Coast Guard Vessel Documentation Center.

Last reported at 2016-Nov-28 21:29 UTC. Time now 2016-Dec-04 22:26 UTC.
Position N 27°37' W 082°41'.

Length 188 m; draft 5 m.

Type: . MMSI: 367453420.

Date/timePositionNaut miles runAvg speedWind from/ knotsBaromVisibWave heightAir tempDewpointWater temp
2016-Nov-28 21:29N 27°37' W 082°41'1010.3
2016-Nov-28 20:33N 27°43' W 082°32'9 9.2
2016-Nov-28 19:34N 27°51' W 082°27'5 5.2
2016-Nov-28 18:34N 27°56' W 082°26'1 1.0
2016-Nov-28 17:34N 27°56' W 082°27'0 0.2
2016-Nov-28 16:34N 27°57' W 082°27'0 0.0
2016-Nov-28 15:34N 27°57' W 082°27'4 4.2
2016-Nov-28 14:34N 27°52' W 082°27'0 0.4
2016-Nov-28 13:34N 27°53' W 082°26'4 3.8
2016-Nov-28 12:34N 27°57' W 082°27'0 0.0
2016-Nov-28 11:33N 27°57' W 082°27'0 0.0
2016-Nov-28 10:33N 27°57' W 082°27'0 0.0
2016-Nov-28 09:33N 27°57' W 082°27'0 0.0
2016-Nov-28 08:33N 27°57' W 082°27'0 0.0
2016-Nov-28 07:33N 27°57' W 082°27'0 0.0
2016-Nov-28 06:33N 27°57' W 082°27'0 0.0
2016-Nov-28 05:33N 27°57' W 082°27'0 0.0
2016-Nov-28 04:33N 27°57' W 082°27'0 0.0
2016-Nov-28 03:33N 27°57' W 082°27'0 0.0
2016-Nov-28 02:33N 27°57' W 082°27'0 0.0
2016-Nov-28 01:33N 27°57' W 082°27'0 0.0
2016-Nov-28 00:33N 27°57' W 082°27'0 0.0
2016-Nov-27 23:33N 27°57' W 082°27'0 0.0
2016-Nov-27 22:33N 27°57' W 082°27'0 0.0
2016-Nov-27 21:33N 27°57' W 082°27'0 0.0
2016-Nov-27 20:33N 27°57' W 082°27'0 0.0
2016-Nov-27 19:33N 27°57' W 082°27'0 0.0
2016-Nov-27 18:33N 27°57' W 082°27'0 0.0
2016-Nov-27 17:33N 27°57' W 082°27'0 0.0
2016-Nov-27 16:33N 27°57' W 082°27'0 0.0
2016-Nov-27 15:33N 27°57' W 082°27'0 0.0
2016-Nov-27 14:33N 27°57' W 082°27'0 0.0
2016-Nov-27 13:33N 27°57' W 082°27'0 0.0
2016-Nov-27 12:33N 27°57' W 082°27'0 0.0
2016-Nov-27 11:33N 27°57' W 082°27'0 0.0
2016-Nov-27 10:33N 27°57' W 082°27'0 0.0
2016-Nov-27 09:33N 27°57' W 082°27'0 0.0
2016-Nov-27 08:33N 27°57' W 082°27'0 0.0
2016-Nov-27 07:33N 27°57' W 082°27'0 0.0
2016-Nov-27 06:33N 27°57' W 082°27'0 0.0
2016-Nov-27 05:33N 27°57' W 082°27'0 0.0
2016-Nov-27 04:33N 27°57' W 082°27'0 0.0
2016-Nov-27 03:33N 27°57' W 082°27'0 0.0
2016-Nov-27 02:33N 27°57' W 082°27'0 0.0
2016-Nov-27 01:33N 27°57' W 082°27'0 0.0
2016-Nov-27 00:33N 27°57' W 082°27'0 0.0
2016-Nov-26 23:33N 27°57' W 082°27'0 0.0
2016-Nov-26 22:33N 27°57' W 082°27'0 0.0
2016-Nov-26 21:33N 27°57' W 082°27'0 0.0
2016-Nov-26 20:33N 27°57' W 082°27'0 0.0
2016-Nov-26 19:33N 27°57' W 082°27'0 0.0
2016-Nov-26 18:33N 27°57' W 082°27'0 0.0
2016-Nov-26 17:33N 27°57' W 082°27'0 0.0
2016-Nov-26 16:33N 27°57' W 082°27'0 0.0
2016-Nov-26 15:33N 27°57' W 082°27'0 0.0
2016-Nov-26 14:33N 27°57' W 082°27'0 0.0
2016-Nov-26 13:33N 27°57' W 082°27'0 0.0
2016-Nov-26 12:33N 27°57' W 082°27'0 0.0
2016-Nov-26 11:33N 27°57' W 082°27'0 0.0
2016-Nov-26 10:33N 27°57' W 082°27'0 0.0
2016-Nov-26 09:33N 27°57' W 082°27'0 0.0
2016-Nov-26 08:33N 27°57' W 082°27'0 0.0
2016-Nov-26 07:33N 27°57' W 082°27'0 0.0
2016-Nov-26 06:33N 27°57' W 082°27'0 0.0
2016-Nov-26 05:33N 27°57' W 082°27'0 0.0
2016-Nov-26 04:33N 27°57' W 082°27'0 0.0
2016-Nov-26 03:33N 27°57' W 082°27'0 0.0
2016-Nov-26 02:33N 27°57' W 082°27'0 0.0
2016-Nov-26 01:33N 27°57' W 082°27'0 0.0
2016-Nov-26 00:33N 27°57' W 082°27'0 0.0
2016-Nov-25 23:33N 27°57' W 082°27'0 0.0
2016-Nov-25 22:33N 27°57' W 082°27'0 0.0
2016-Nov-25 21:33N 27°57' W 082°27'0 0.0
2016-Nov-25 20:33N 27°57' W 082°27'0 0.0
2016-Nov-25 19:33N 27°57' W 082°27'0 0.0
2016-Nov-25 18:33N 27°57' W 082°27'0 0.0
2016-Nov-25 17:33N 27°57' W 082°27'0 0.0
2016-Nov-25 16:33N 27°57' W 082°27'0 0.0
2016-Nov-25 15:33N 27°57' W 082°27'0 0.0
2016-Nov-25 14:33N 27°57' W 082°27'0 0.0
2016-Nov-25 13:33N 27°57' W 082°27'0 0.0
2016-Nov-25 12:33N 27°57' W 082°27'0 0.0
2016-Nov-25 11:33N 27°57' W 082°27'0 0.0
2016-Nov-25 10:33N 27°57' W 082°27'0 0.0
2016-Nov-25 09:33N 27°57' W 082°27'0 0.0
2016-Nov-25 08:33N 27°57' W 082°27'0 0.0
2016-Nov-25 07:33N 27°57' W 082°27'0 0.0
2016-Nov-25 06:33N 27°57' W 082°27'0 0.0
2016-Nov-25 05:33N 27°57' W 082°27'0 0.0
2016-Nov-25 04:33N 27°57' W 082°27'0 0.0
2016-Nov-25 03:33N 27°57' W 082°27'0 0.0
2016-Nov-25 02:33N 27°57' W 082°27'0 0.0
2016-Nov-25 01:33N 27°57' W 082°27'0 0.0
2016-Nov-25 00:33N 27°57' W 082°27'0 0.0
2016-Nov-24 23:33N 27°57' W 082°27'0 0.0
2016-Nov-24 22:33N 27°57' W 082°27'0 0.0
2016-Nov-24 21:33N 27°57' W 082°27'0 0.0
2016-Nov-24 20:33N 27°57' W 082°27'0 0.0
2016-Nov-24 19:33N 27°57' W 082°27'0 0.0
2016-Nov-24 18:33N 27°57' W 082°27'0 0.0
2016-Nov-24 17:33N 27°57' W 082°27'0 0.0
2016-Nov-24 16:33N 27°57' W 082°27'0 0.0
2016-Nov-24 15:33N 27°57' W 082°27'0 0.0
2016-Nov-24 14:33N 27°57' W 082°27'0 0.0
2016-Nov-24 13:33N 27°57' W 082°27'0 0.0
2016-Nov-24 12:33N 27°57' W 082°27'0 0.0
2016-Nov-24 11:33N 27°57' W 082°27'0 0.0
2016-Nov-24 10:33N 27°57' W 082°27'0 0.0
2016-Nov-24 09:33N 27°57' W 082°27'0 0.0
2016-Nov-24 08:33N 27°57' W 082°27'0 0.0
2016-Nov-24 07:33N 27°57' W 082°27'0 0.0
2016-Nov-24 06:33N 27°57' W 082°27'0 0.0
2016-Nov-24 05:33N 27°57' W 082°27'0 0.0
2016-Nov-24 04:33N 27°57' W 082°27'0 0.0
2016-Nov-24 03:33N 27°57' W 082°27'0 0.0
2016-Nov-24 02:33N 27°57' W 082°27'0 0.0
2016-Nov-24 01:33N 27°57' W 082°27'0 0.0
2016-Nov-24 00:33N 27°57' W 082°27'0 0.0
2016-Nov-23 23:33N 27°57' W 082°27'0 0.0
2016-Nov-23 22:33N 27°57' W 082°27'0 0.0
2016-Nov-23 21:33N 27°57' W 082°27'0 0.0
2016-Nov-23 20:33N 27°57' W 082°27'0 0.0
2016-Nov-23 19:33N 27°57' W 082°27'0 0.0
2016-Nov-23 18:33N 27°57' W 082°27'0 0.0
2016-Nov-23 17:33N 27°57' W 082°27'0 0.0
2016-Nov-23 16:33N 27°57' W 082°27'0 0.0
2016-Nov-23 15:34N 27°57' W 082°27'1 1.0
2016-Nov-23 14:34N 27°56' W 082°26'0 0.1
2016-Nov-23 13:34N 27°56' W 082°26'3 2.9
2016-Nov-23 12:34N 27°53' W 082°26'9 9.0
2016-Nov-23 11:34N 27°45' W 082°31'  
Track history (hours):
 
Tides and Currents Weather Stations Pressure Air Temp Water Temp Dewpoint Dewpoint Depression Visibility Wind Speed Wind Dir Waves Ship Positions

Mary Ann Moran

Owner: MORAN TOWING CORPORATION, NEW CANAAN, CT. More information available from US FCC via Universal Licensing System and Coast Guard Vessel Documentation Center.

Last reported at 2016-Nov-28 21:29 UTC. Time now 2016-Dec-04 22:26 UTC.
Position N 27°37' W 082°41'.

Length 188 m; draft 5 m.

Type: . MMSI: 367453420.

Date/timePositionNaut miles runAvg speedWind from/ knotsBaromVisibWave heightAir tempDewpointWater temp
2016-Nov-28 21:29N 27°37' W 082°41'1010.3
2016-Nov-28 20:33N 27°43' W 082°32'9 9.2
2016-Nov-28 19:34N 27°51' W 082°27'5 5.2
2016-Nov-28 18:34N 27°56' W 082°26'1 1.0
2016-Nov-28 17:34N 27°56' W 082°27'0 0.2
2016-Nov-28 16:34N 27°57' W 082°27'0 0.0
2016-Nov-28 15:34N 27°57' W 082°27'4 4.2
2016-Nov-28 14:34N 27°52' W 082°27'0 0.4
2016-Nov-28 13:34N 27°53' W 082°26'4 3.8
2016-Nov-28 12:34N 27°57' W 082°27'0 0.0
2016-Nov-28 11:33N 27°57' W 082°27'0 0.0
2016-Nov-28 10:33N 27°57' W 082°27'0 0.0
2016-Nov-28 09:33N 27°57' W 082°27'0 0.0
2016-Nov-28 08:33N 27°57' W 082°27'0 0.0
2016-Nov-28 07:33N 27°57' W 082°27'0 0.0
2016-Nov-28 06:33N 27°57' W 082°27'0 0.0
2016-Nov-28 05:33N 27°57' W 082°27'0 0.0
2016-Nov-28 04:33N 27°57' W 082°27'0 0.0
2016-Nov-28 03:33N 27°57' W 082°27'0 0.0
2016-Nov-28 02:33N 27°57' W 082°27'0 0.0
2016-Nov-28 01:33N 27°57' W 082°27'0 0.0
2016-Nov-28 00:33N 27°57' W 082°27'0 0.0
2016-Nov-27 23:33N 27°57' W 082°27'0 0.0
2016-Nov-27 22:33N 27°57' W 082°27'0 0.0
2016-Nov-27 21:33N 27°57' W 082°27'0 0.0
2016-Nov-27 20:33N 27°57' W 082°27'0 0.0
2016-Nov-27 19:33N 27°57' W 082°27'0 0.0
2016-Nov-27 18:33N 27°57' W 082°27'0 0.0
2016-Nov-27 17:33N 27°57' W 082°27'0 0.0
2016-Nov-27 16:33N 27°57' W 082°27'0 0.0
2016-Nov-27 15:33N 27°57' W 082°27'0 0.0
2016-Nov-27 14:33N 27°57' W 082°27'0 0.0
2016-Nov-27 13:33N 27°57' W 082°27'0 0.0
2016-Nov-27 12:33N 27°57' W 082°27'0 0.0
2016-Nov-27 11:33N 27°57' W 082°27'0 0.0
2016-Nov-27 10:33N 27°57' W 082°27'0 0.0
2016-Nov-27 09:33N 27°57' W 082°27'0 0.0
2016-Nov-27 08:33N 27°57' W 082°27'0 0.0
2016-Nov-27 07:33N 27°57' W 082°27'0 0.0
2016-Nov-27 06:33N 27°57' W 082°27'0 0.0
2016-Nov-27 05:33N 27°57' W 082°27'0 0.0
2016-Nov-27 04:33N 27°57' W 082°27'0 0.0
2016-Nov-27 03:33N 27°57' W 082°27'0 0.0
2016-Nov-27 02:33N 27°57' W 082°27'0 0.0
2016-Nov-27 01:33N 27°57' W 082°27'0 0.0
2016-Nov-27 00:33N 27°57' W 082°27'0 0.0
2016-Nov-26 23:33N 27°57' W 082°27'0 0.0
2016-Nov-26 22:33N 27°57' W 082°27'0 0.0
2016-Nov-26 21:33N 27°57' W 082°27'0 0.0
2016-Nov-26 20:33N 27°57' W 082°27'0 0.0
2016-Nov-26 19:33N 27°57' W 082°27'0 0.0
2016-Nov-26 18:33N 27°57' W 082°27'0 0.0
2016-Nov-26 17:33N 27°57' W 082°27'0 0.0
2016-Nov-26 16:33N 27°57' W 082°27'0 0.0
2016-Nov-26 15:33N 27°57' W 082°27'0 0.0
2016-Nov-26 14:33N 27°57' W 082°27'0 0.0
2016-Nov-26 13:33N 27°57' W 082°27'0 0.0
2016-Nov-26 12:33N 27°57' W 082°27'0 0.0
2016-Nov-26 11:33N 27°57' W 082°27'0 0.0
2016-Nov-26 10:33N 27°57' W 082°27'0 0.0
2016-Nov-26 09:33N 27°57' W 082°27'0 0.0
2016-Nov-26 08:33N 27°57' W 082°27'0 0.0
2016-Nov-26 07:33N 27°57' W 082°27'0 0.0
2016-Nov-26 06:33N 27°57' W 082°27'0 0.0
2016-Nov-26 05:33N 27°57' W 082°27'0 0.0
2016-Nov-26 04:33N 27°57' W 082°27'0 0.0
2016-Nov-26 03:33N 27°57' W 082°27'0 0.0
2016-Nov-26 02:33N 27°57' W 082°27'0 0.0
2016-Nov-26 01:33N 27°57' W 082°27'0 0.0
2016-Nov-26 00:33N 27°57' W 082°27'0 0.0
2016-Nov-25 23:33N 27°57' W 082°27'0 0.0
2016-Nov-25 22:33N 27°57' W 082°27'0 0.0
2016-Nov-25 21:33N 27°57' W 082°27'0 0.0
2016-Nov-25 20:33N 27°57' W 082°27'0 0.0
2016-Nov-25 19:33N 27°57' W 082°27'0 0.0
2016-Nov-25 18:33N 27°57' W 082°27'0 0.0
2016-Nov-25 17:33N 27°57' W 082°27'0 0.0
2016-Nov-25 16:33N 27°57' W 082°27'0 0.0
2016-Nov-25 15:33N 27°57' W 082°27'0 0.0
2016-Nov-25 14:33N 27°57' W 082°27'0 0.0
2016-Nov-25 13:33N 27°57' W 082°27'0 0.0
2016-Nov-25 12:33N 27°57' W 082°27'0 0.0
2016-Nov-25 11:33N 27°57' W 082°27'0 0.0
2016-Nov-25 10:33N 27°57' W 082°27'0 0.0
2016-Nov-25 09:33N 27°57' W 082°27'0 0.0
2016-Nov-25 08:33N 27°57' W 082°27'0 0.0
2016-Nov-25 07:33N 27°57' W 082°27'0 0.0
2016-Nov-25 06:33N 27°57' W 082°27'0 0.0
2016-Nov-25 05:33N 27°57' W 082°27'0 0.0
2016-Nov-25 04:33N 27°57' W 082°27'0 0.0
2016-Nov-25 03:33N 27°57' W 082°27'0 0.0
2016-Nov-25 02:33N 27°57' W 082°27'0 0.0
2016-Nov-25 01:33N 27°57' W 082°27'0 0.0
2016-Nov-25 00:33N 27°57' W 082°27'0 0.0
2016-Nov-24 23:33N 27°57' W 082°27'0 0.0
2016-Nov-24 22:33N 27°57' W 082°27'0 0.0
2016-Nov-24 21:33N 27°57' W 082°27'0 0.0
2016-Nov-24 20:33N 27°57' W 082°27'0 0.0
2016-Nov-24 19:33N 27°57' W 082°27'0 0.0
2016-Nov-24 18:33N 27°57' W 082°27'0 0.0
2016-Nov-24 17:33N 27°57' W 082°27'0 0.0
2016-Nov-24 16:33N 27°57' W 082°27'0 0.0
2016-Nov-24 15:33N 27°57' W 082°27'0 0.0
2016-Nov-24 14:33N 27°57' W 082°27'0 0.0
2016-Nov-24 13:33N 27°57' W 082°27'0 0.0
2016-Nov-24 12:33N 27°57' W 082°27'0 0.0
2016-Nov-24 11:33N 27°57' W 082°27'0 0.0
2016-Nov-24 10:33N 27°57' W 082°27'0 0.0
2016-Nov-24 09:33N 27°57' W 082°27'0 0.0
2016-Nov-24 08:33N 27°57' W 082°27'0 0.0
2016-Nov-24 07:33N 27°57' W 082°27'0 0.0
2016-Nov-24 06:33N 27°57' W 082°27'0 0.0
2016-Nov-24 05:33N 27°57' W 082°27'0 0.0
2016-Nov-24 04:33N 27°57' W 082°27'0 0.0
2016-Nov-24 03:33N 27°57' W 082°27'0 0.0
2016-Nov-24 02:33N 27°57' W 082°27'0 0.0
2016-Nov-24 01:33N 27°57' W 082°27'0 0.0
2016-Nov-24 00:33N 27°57' W 082°27'0 0.0
2016-Nov-23 23:33N 27°57' W 082°27'0 0.0
2016-Nov-23 22:33N 27°57' W 082°27'0 0.0
2016-Nov-23 21:33N 27°57' W 082°27'0 0.0
2016-Nov-23 20:33N 27°57' W 082°27'0 0.0
2016-Nov-23 19:33N 27°57' W 082°27'0 0.0
2016-Nov-23 18:33N 27°57' W 082°27'0 0.0
2016-Nov-23 17:33N 27°57' W 082°27'0 0.0
2016-Nov-23 16:33N 27°57' W 082°27'0 0.0
2016-Nov-23 15:34N 27°57' W 082°27'1 1.0
2016-Nov-23 14:34N 27°56' W 082°26'0 0.1
2016-Nov-23 13:34N 27°56' W 082°26'3 2.9
2016-Nov-23 12:34N 27°53' W 082°26'9 9.0
2016-Nov-23 11:34N 27°45' W 082°31'  

Dump ship's entire track history